createdAt,value
2022-09-01T00:01:46.539Z,97739.43
2022-09-01T00:04:18.661Z,97736.98
2022-09-01T00:06:45.597Z,97739.32
2022-09-01T00:09:15.467Z,97738.33
2022-09-01T00:11:47.929Z,97736.36
2022-09-01T00:14:30.652Z,97733.69
2022-09-01T00:16:59.996Z,97728.41
2022-09-01T00:19:26.921Z,97721.75
2022-09-01T00:21:53.547Z,97723.33
2022-09-01T00:24:20.284Z,97719.98
2022-09-01T00:26:47.811Z,97719.92
2022-09-01T00:29:15.633Z,97714.09
2022-09-01T00:31:42.484Z,97711.25
2022-09-01T00:34:09.137Z,97707.34
2022-09-01T00:36:36.603Z,97708.30
2022-09-01T00:39:05.555Z,97710.54
2022-09-01T00:41:34.269Z,97707.58
2022-09-01T00:44:06.878Z,97704.77
2022-09-01T00:46:47.757Z,97705.50
2022-09-01T00:49:46.636Z,97704.79
2022-09-01T00:52:18.589Z,97709.09
2022-09-01T00:54:49.953Z,97713.00
2022-09-01T00:57:17.054Z,97719.69
2022-09-01T00:59:57.724Z,97720.52
2022-09-01T01:02:25.085Z,97722.89
2022-09-01T01:04:52.147Z,97720.33
2022-09-01T01:07:22.291Z,97718.29
2022-09-01T01:09:49.979Z,97716.63
2022-09-01T01:12:17.706Z,97715.49
2022-09-01T01:14:47.396Z,97714.80
2022-09-01T01:17:14.113Z,97713.44
2022-09-01T01:20:01.445Z,97711.94
2022-09-01T01:22:58.601Z,97710.05
2022-09-01T01:25:26.358Z,97708.15
2022-09-01T01:28:11.036Z,97705.33
2022-09-01T01:30:41.432Z,97703.27
2022-09-01T01:33:09.511Z,97698.96
2022-09-01T01:35:41.793Z,97697.52
2022-09-01T01:38:09.335Z,97693.52
2022-09-01T01:40:37.681Z,97693.85
2022-09-01T01:43:05.286Z,97693.84
2022-09-01T01:45:32.185Z,97692.60
2022-09-01T01:48:02.873Z,97692.52
2022-09-01T01:50:35.078Z,97693.60
2022-09-01T01:53:04.317Z,97692.45
2022-09-01T01:55:41.327Z,97693.32
2022-09-01T01:58:09.307Z,97691.17
2022-09-01T02:00:37.254Z,97688.50
2022-09-01T02:03:04.707Z,97689.33
2022-09-01T02:05:35.343Z,97689.72
2022-09-01T02:08:06.046Z,97689.23
2022-09-01T02:10:38.605Z,97689.88
2022-09-01T02:13:06.694Z,97689.52
2022-09-01T02:15:41.831Z,97690.33
2022-09-01T02:18:10.368Z,97692.12
2022-09-01T02:20:37.514Z,97692.14
2022-09-01T02:23:10.131Z,97689.85
2022-09-01T02:26:05.195Z,97685.94
2022-09-01T02:28:34.457Z,97683.35
2022-09-01T02:31:02.140Z,97682.52
2022-09-01T02:33:31.696Z,97685.77
2022-09-01T02:36:02.456Z,97688.71
2022-09-01T02:38:32.497Z,97690.35
2022-09-01T02:41:02.984Z,97690.88
2022-09-01T02:43:31.123Z,97683.80
2022-09-01T02:46:00.632Z,97686.95
2022-09-01T02:48:35.845Z,97681.09
2022-09-01T02:51:16.021Z,97685.70
2022-09-01T02:53:46.190Z,97685.69
2022-09-01T02:56:13.737Z,97690.30
2022-09-01T02:58:45.815Z,97686.89
2022-09-01T03:01:26.847Z,97686.11
2022-09-01T03:03:56.925Z,97685.32
2022-09-01T03:06:24.825Z,97687.36
2022-09-01T03:08:54.434Z,97689.23
2022-09-01T03:11:23.242Z,97690.80
2022-09-01T03:13:50.973Z,97689.14
2022-09-01T03:16:18.441Z,97689.27
2022-09-01T03:18:45.043Z,97684.05
2022-09-01T03:21:16.530Z,97682.20
2022-09-01T03:23:45.546Z,97679.73
2022-09-01T03:26:14.518Z,97676.09
2022-09-01T03:28:41.243Z,97672.00
2022-09-01T03:31:08.912Z,97670.45
2022-09-01T03:33:36.260Z,97675.62
2022-09-01T03:36:05.009Z,97678.63
2022-09-01T03:38:43.313Z,97682.33
2022-09-01T03:41:12.481Z,97684.34
2022-09-01T03:43:46.014Z,97683.02
2022-09-01T03:46:19.596Z,97679.05
2022-09-01T03:48:55.171Z,97679.55
2022-09-01T03:51:23.316Z,97679.19
2022-09-01T03:53:56.933Z,97682.23
2022-09-01T03:56:28.944Z,97685.86
2022-09-01T03:58:58.302Z,97685.73
2022-09-01T04:01:27.732Z,97691.28
2022-09-01T04:03:55.231Z,97691.53
2022-09-01T04:06:30.327Z,97687.39
2022-09-01T04:09:02.004Z,97686.02
2022-09-01T04:11:32.931Z,97688.82
2022-09-01T04:14:00.467Z,97689.11
2022-09-01T04:16:52.674Z,97686.57
2022-09-01T04:19:26.462Z,97683.58
2022-09-01T04:21:59.258Z,97685.34
2022-09-01T04:24:32.074Z,97683.79
2022-09-01T04:27:01.590Z,97683.30
2022-09-01T04:29:30.847Z,97687.45
2022-09-01T04:32:12.079Z,97688.10
2022-09-01T04:34:41.145Z,97688.54
2022-09-01T04:37:20.907Z,97689.74
2022-09-01T04:39:56.877Z,97685.39
2022-09-01T04:42:28.646Z,97684.67
2022-09-01T04:44:56.832Z,97685.65
2022-09-01T04:47:29.548Z,97686.77
2022-09-01T04:49:59.744Z,97687.34
2022-09-01T04:52:27.748Z,97683.59
2022-09-01T04:54:54.801Z,97685.09
2022-09-01T04:57:22.061Z,97685.55
2022-09-01T04:59:48.844Z,97684.20
2022-09-01T05:02:16.155Z,97686.45
2022-09-01T05:04:45.863Z,97689.98
2022-09-01T05:07:13.602Z,97693.66
2022-09-01T05:09:40.226Z,97697.68
2022-09-01T05:12:40.626Z,97696.59
2022-09-01T05:15:09.147Z,97695.41
2022-09-01T05:17:37.914Z,97685.67
2022-09-01T05:20:05.732Z,97680.60
2022-09-01T05:22:35.069Z,97685.04
2022-09-01T05:25:12.647Z,97682.54
2022-09-01T05:27:48.929Z,97677.27
2022-09-01T05:30:18.010Z,97675.55
2022-09-01T05:32:48.553Z,97668.98
2022-09-01T05:35:15.566Z,97671.73
2022-09-01T05:37:42.863Z,97669.19
2022-09-01T05:40:15.417Z,97669.77
2022-09-01T05:42:45.912Z,97670.14
2022-09-01T05:45:13.668Z,97666.95
2022-09-01T05:47:41.286Z,97664.20
2022-09-01T05:50:14.354Z,97658.76
2022-09-01T05:52:47.307Z,97652.11
2022-09-01T05:55:14.688Z,97647.46
2022-09-01T05:57:42.510Z,97644.98
2022-09-01T06:00:13.468Z,97647.60
2022-09-01T06:02:42.231Z,97646.65
2022-09-01T06:05:13.367Z,97645.24
2022-09-01T06:07:42.227Z,97641.23
2022-09-01T06:10:10.093Z,97643.39
2022-09-01T06:12:37.194Z,97643.34
2022-09-01T06:15:06.635Z,97643.89
2022-09-01T06:17:35.894Z,97638.88
2022-09-01T06:20:09.934Z,97639.65
2022-09-01T06:22:38.967Z,97636.15
2022-09-01T06:25:08.276Z,97637.23
2022-09-01T06:27:43.798Z,97639.19
2022-09-01T06:30:23.164Z,97644.77
2022-09-01T06:33:00.673Z,97640.63
2022-09-01T06:35:29.344Z,97640.49
2022-09-01T06:37:57.886Z,97641.48
2022-09-01T06:40:39.257Z,97646.95
2022-09-01T06:43:11.438Z,97646.59
2022-09-01T06:45:42.497Z,97649.17
2022-09-01T06:48:15.273Z,97650.17
2022-09-01T06:53:32.794Z,97653.20
2022-09-01T06:56:02.389Z,97653.30
2022-09-01T06:58:30.724Z,97648.05
2022-09-01T07:00:57.564Z,97642.39
2022-09-01T07:03:25.875Z,97640.70
2022-09-01T07:06:59.075Z,97644.25
2022-09-01T07:09:38.797Z,97646.08
2022-09-01T07:12:26.635Z,97647.84
2022-09-01T07:17:53.674Z,97641.08
2022-09-01T07:20:24.551Z,97642.71
2022-09-01T07:23:09.226Z,97639.15
2022-09-01T07:26:02.229Z,97639.92
2022-09-01T07:28:37.156Z,97635.58
2022-09-01T07:33:54.547Z,97636.10
2022-09-01T07:36:29.041Z,97636.81
2022-09-01T07:48:02.701Z,97640.44
2022-09-01T07:50:41.301Z,97635.45
2022-09-01T07:53:30.870Z,97633.94
2022-09-01T07:56:08.922Z,97634.60
2022-09-01T07:58:41.340Z,97633.12
2022-09-01T08:01:10.866Z,97629.26
2022-09-01T08:03:40.837Z,97631.63
2022-09-01T08:06:10.315Z,97629.94
2022-09-01T08:08:39.408Z,97625.77
2022-09-01T08:11:08.335Z,97623.40
2022-09-01T08:13:42.015Z,97619.17
2022-09-01T08:16:18.539Z,97617.05
2022-09-01T08:18:49.381Z,97611.56
2022-09-01T08:21:32.271Z,97612.11
2022-09-01T08:24:01.917Z,97608.73
2022-09-01T08:26:29.744Z,97604.36
2022-09-01T08:28:56.665Z,97599.78
2022-09-01T08:31:37.302Z,97600.54
2022-09-01T08:34:04.970Z,97600.52
2022-09-01T08:36:32.395Z,97594.96
2022-09-01T08:38:59.407Z,97592.90
2022-09-01T08:41:28.604Z,97586.27
2022-09-01T08:44:10.371Z,97586.90
2022-09-01T08:46:42.480Z,97583.42
2022-09-01T08:49:25.843Z,97581.60
2022-09-01T08:53:10.317Z,97580.34
2022-09-01T08:55:46.913Z,97580.03
2022-09-01T08:58:17.517Z,97576.75
2022-09-01T09:01:11.650Z,97576.73
2022-09-01T09:04:17.100Z,97575.75
2022-09-01T09:07:10.248Z,97572.98
2022-09-01T09:09:54.209Z,97569.55
2022-09-01T09:12:50.769Z,97564.98
2022-09-01T09:15:39.484Z,97562.66
2022-09-01T09:18:39.922Z,97558.69
2022-09-01T09:21:23.459Z,97559.20
2022-09-01T09:24:22.693Z,97554.58
2022-09-01T09:26:51.508Z,97552.88
2022-09-01T09:29:20.013Z,97556.46
2022-09-01T09:31:49.902Z,97552.91
2022-09-01T09:34:38.411Z,97544.41
2022-09-01T09:37:20.594Z,97541.17
2022-09-01T09:40:08.568Z,97541.98
2022-09-01T09:43:01.635Z,97542.54
2022-09-01T09:45:33.656Z,97542.44
2022-09-01T09:48:07.135Z,97540.23
2022-09-01T09:50:40.568Z,97538.38
2022-09-01T09:53:25.681Z,97538.70
2022-09-01T09:56:23.713Z,97541.02
2022-09-01T09:58:52.372Z,97530.02
2022-09-01T10:01:21.762Z,97531.86
2022-09-01T10:03:54.345Z,97530.36
2022-09-01T10:06:45.408Z,97529.81
2022-09-01T10:09:33.751Z,97527.60
2022-09-01T10:12:01.554Z,97523.36
2022-09-01T10:14:51.800Z,97520.45
2022-09-01T10:17:37.838Z,97525.98
2022-09-01T10:20:20.705Z,97526.98
2022-09-01T10:22:49.682Z,97526.78
2022-09-01T10:25:21.330Z,97519.89
2022-09-01T10:28:23.907Z,97517.14
2022-09-01T10:30:53.342Z,97514.48
2022-09-01T10:33:22.324Z,97512.30
2022-09-01T10:35:52.015Z,97509.64
2022-09-01T10:38:20.510Z,97504.08
2022-09-01T10:41:06.534Z,97503.94
2022-09-01T10:43:48.399Z,97505.86
2022-09-01T10:46:38.971Z,97511.48
2022-09-01T10:49:46.450Z,97514.96
2022-09-01T10:52:41.532Z,97507.77
2022-09-01T10:55:25.425Z,97504.61
2022-09-01T10:58:09.594Z,97499.33
2022-09-01T11:03:53.597Z,97492.30
2022-09-01T11:09:42.998Z,97476.42
2022-09-01T11:12:42.867Z,97477.99
2022-09-01T11:15:16.934Z,97472.39
2022-09-01T11:17:52.628Z,97467.09
2022-09-01T11:20:28.414Z,97463.45
2022-09-01T11:23:07.247Z,97467.11
2022-09-01T11:25:39.680Z,97468.52
2022-09-01T11:28:14.364Z,97474.55
2022-09-01T11:30:51.321Z,97471.11
2022-09-01T11:33:42.715Z,97466.38
2022-09-01T11:36:25.405Z,97470.58
2022-09-01T11:39:03.128Z,97470.91
2022-09-01T11:41:35.427Z,97463.70
2022-09-01T11:44:11.126Z,97462.70
2022-09-01T11:46:38.381Z,97461.30
2022-09-01T11:49:22.478Z,97464.92
2022-09-01T11:51:49.253Z,97465.82
2022-09-01T11:54:16.127Z,97467.94
2022-09-01T11:56:43.002Z,97467.29
2022-09-01T11:59:10.402Z,97469.84
2022-09-01T12:01:39.920Z,97467.47
2022-09-01T12:04:23.911Z,97470.02
2022-09-01T12:07:01.720Z,97469.23
2022-09-01T12:09:38.305Z,97471.51
2022-09-01T12:12:07.402Z,97475.32
2022-09-01T12:14:55.016Z,97474.38
2022-09-01T12:17:21.318Z,97474.38
2022-09-01T12:19:48.044Z,97476.79
2022-09-01T12:22:20.949Z,97479.71
2022-09-01T12:24:56.087Z,97477.41
2022-09-01T12:27:22.722Z,97474.21
2022-09-01T12:29:51.121Z,97477.81
2022-09-01T12:32:19.256Z,97476.10
2022-09-01T12:34:58.626Z,97471.23
2022-09-01T12:37:26.638Z,97469.48
2022-09-01T12:39:56.934Z,97473.72
2022-09-01T12:42:40.607Z,97473.11
2022-09-01T12:45:09.542Z,97476.71
2022-09-01T12:47:36.582Z,97476.17
2022-09-01T12:50:12.437Z,97472.39
2022-09-01T12:53:12.751Z,97471.88
2022-09-01T12:55:55.094Z,97471.58
2022-09-01T12:58:25.258Z,97470.77
2022-09-01T13:01:16.918Z,97470.69
2022-09-01T13:04:24.168Z,97467.91
2022-09-01T13:06:52.923Z,97467.56
2022-09-01T13:09:19.598Z,97470.16
2022-09-01T13:12:06.265Z,97470.42
2022-09-01T13:14:33.504Z,97473.07
2022-09-01T13:17:00.667Z,97478.54
2022-09-01T13:19:30.223Z,97479.21
2022-09-01T13:21:57.746Z,97484.70
2022-09-01T13:24:29.347Z,97488.55
2022-09-01T13:29:45.112Z,97496.48
2022-09-01T13:32:20.775Z,97510.03
2022-09-01T13:34:52.003Z,97515.41
2022-09-01T13:37:20.666Z,97514.94
2022-09-01T13:39:47.940Z,97522.79
2022-09-01T13:42:16.153Z,97523.58
2022-09-01T13:44:44.146Z,97523.70
2022-09-01T13:50:09.203Z,97538.46
2022-09-01T13:52:38.889Z,97547.77
2022-09-01T13:55:07.237Z,97556.09
2022-09-01T13:57:36.587Z,97559.80
2022-09-01T14:00:16.602Z,97573.61
2022-09-01T14:02:52.478Z,97588.64
2022-09-01T14:05:24.999Z,97590.65
2022-09-01T14:07:52.804Z,97594.22
2022-09-01T14:10:21.531Z,97598.23
2022-09-01T14:12:49.709Z,97597.45
2022-09-01T14:15:22.711Z,97597.81
2022-09-01T14:17:55.944Z,97602.95
2022-09-01T14:20:26.536Z,97602.21
2022-09-01T14:22:54.274Z,97594.66
2022-09-01T14:25:21.366Z,97592.90
2022-09-01T14:27:49.296Z,97592.15
2022-09-01T14:30:20.152Z,97596.23
2022-09-01T14:32:46.883Z,97597.45
2022-09-01T14:35:14.777Z,97605.77
2022-09-01T14:37:41.593Z,97609.86
2022-09-01T14:40:16.725Z,97617.17
2022-09-01T14:42:48.496Z,97624.18
2022-09-01T14:45:18.037Z,97632.69
2022-09-01T14:47:50.002Z,97642.34
2022-09-01T14:50:22.727Z,97644.56
2022-09-01T14:52:55.841Z,97643.69
2022-09-01T14:55:24.901Z,97647.75
2022-09-01T14:57:52.106Z,97651.17
2022-09-01T15:00:19.197Z,97647.51
2022-09-01T15:02:47.092Z,97647.98
2022-09-01T15:05:14.578Z,97650.20
2022-09-01T15:07:42.516Z,97652.10
2022-09-01T15:10:11.673Z,97651.77
2022-09-01T15:12:43.032Z,97650.27
2022-09-01T15:15:09.792Z,97649.17
2022-09-01T15:17:36.488Z,97648.33
2022-09-01T15:20:24.024Z,97648.22
2022-09-01T15:22:51.087Z,97646.02
2022-09-01T15:25:18.107Z,97643.14
2022-09-01T15:28:06.485Z,97645.00
2022-09-01T15:30:34.800Z,97645.66
2022-09-01T15:33:02.819Z,97644.96
2022-09-01T15:35:30.387Z,97646.27
2022-09-01T15:37:57.597Z,97644.50
2022-09-01T15:40:25.595Z,97644.95
2022-09-01T15:42:52.536Z,97645.80
2022-09-01T15:45:21.564Z,97647.04
2022-09-01T15:47:48.808Z,97645.70
2022-09-01T15:50:21.702Z,97643.16
2022-09-01T15:52:54.516Z,97643.34
2022-09-01T15:55:24.808Z,97642.95
2022-09-01T15:57:54.382Z,97645.52
2022-09-01T16:00:23.330Z,97642.48
2022-09-01T16:02:51.135Z,97638.34
2022-09-01T16:05:18.041Z,97638.98
2022-09-01T16:07:45.375Z,97639.16
2022-09-01T16:10:13.763Z,97639.77
2022-09-01T16:12:46.008Z,97637.80
2022-09-01T16:15:16.472Z,97641.52
2022-09-01T16:17:58.448Z,97647.27
2022-09-01T16:20:35.121Z,97646.09
2022-09-01T16:23:19.602Z,97649.02
2022-09-01T16:25:47.294Z,97651.25
2022-09-01T16:28:20.315Z,97649.21
2022-09-01T16:30:51.381Z,97652.52
2022-09-01T16:33:21.042Z,97653.33
2022-09-01T16:36:11.184Z,97653.98
2022-09-01T16:38:53.389Z,97658.17
2022-09-01T16:41:44.740Z,97663.04
2022-09-01T16:44:33.649Z,97664.05
2022-09-01T16:47:25.458Z,97664.52
2022-09-01T16:50:16.199Z,97666.38
2022-09-01T16:53:02.276Z,97672.48
2022-09-01T16:55:44.214Z,97678.17
2022-09-01T16:58:24.121Z,97679.88
2022-09-01T17:00:53.985Z,97680.48
2022-09-01T17:03:43.796Z,97685.26
2022-09-01T17:06:51.516Z,97691.00
2022-09-01T17:09:32.734Z,97695.80
2022-09-01T17:12:22.731Z,97695.13
2022-09-01T17:14:55.813Z,97696.79
2022-09-01T17:17:32.719Z,97698.84
2022-09-01T17:20:02.520Z,97698.04
2022-09-01T17:22:31.127Z,97698.02
2022-09-01T17:25:17.472Z,97696.13
2022-09-01T17:27:58.846Z,97700.33
2022-09-01T17:30:25.797Z,97702.43
2022-09-01T17:33:17.339Z,97701.25
2022-09-01T17:36:10.506Z,97703.41
2022-09-01T17:38:47.594Z,97713.59
2022-09-01T17:41:34.204Z,97717.48
2022-09-01T17:44:20.737Z,97717.55
2022-09-01T17:46:54.448Z,97719.86
2022-09-01T17:49:21.219Z,97719.13
2022-09-01T17:52:12.595Z,97720.64
2022-09-01T17:55:02.118Z,97721.20
2022-09-01T17:57:44.336Z,97725.38
2022-09-01T18:00:17.728Z,97730.15
2022-09-01T18:03:18.653Z,97730.70
2022-09-01T18:05:59.160Z,97733.42
2022-09-01T18:08:30.438Z,97736.45
2022-09-01T18:11:18.337Z,97738.64
2022-09-01T18:13:53.382Z,97742.20
2022-09-01T18:16:26.434Z,97743.75
2022-09-01T18:18:54.044Z,97744.55
2022-09-01T18:21:25.967Z,97747.47
2022-09-01T18:24:05.504Z,97744.00
2022-09-01T18:26:38.772Z,97748.43
2022-09-01T18:29:06.646Z,97746.29
2022-09-01T18:31:33.666Z,97747.10
2022-09-01T18:34:09.840Z,97750.63
2022-09-01T18:36:53.616Z,97751.96
2022-09-01T18:39:32.541Z,97751.38
2022-09-01T18:42:26.812Z,97754.32
2022-09-01T18:45:04.808Z,97753.09
2022-09-01T18:47:40.049Z,97755.17
2022-09-01T18:50:15.932Z,97755.41
2022-09-01T18:52:49.074Z,97755.08
2022-09-01T18:55:30.388Z,97758.11
2022-09-01T18:58:05.750Z,97754.46
2022-09-01T19:00:38.723Z,97761.45
2022-09-01T19:03:13.310Z,97762.92
2022-09-01T19:05:52.791Z,97762.05
2022-09-01T19:08:31.630Z,97763.70
2022-09-01T19:11:10.669Z,97762.98
2022-09-01T19:14:05.570Z,97766.16
2022-09-01T19:17:04.039Z,97767.89
2022-09-01T19:19:40.516Z,97765.19
2022-09-01T19:22:09.454Z,97766.37
2022-09-01T19:24:46.183Z,97762.98
2022-09-01T19:27:21.052Z,97764.26
2022-09-01T19:29:56.170Z,97762.81
2022-09-01T19:32:26.786Z,97765.17
2022-09-01T19:34:58.467Z,97766.44
2022-09-01T19:37:25.769Z,97766.55
2022-09-01T19:39:54.425Z,97770.83
2022-09-01T19:42:33.842Z,97770.93
2022-09-01T19:45:19.777Z,97768.48
2022-09-01T19:47:55.707Z,97769.88
2022-09-01T19:50:38.365Z,97770.13
2022-09-01T19:53:26.901Z,97769.76
2022-09-01T19:55:57.787Z,97771.96
2022-09-01T19:58:34.918Z,97770.73
2022-09-01T20:01:05.194Z,97774.47
2022-09-01T20:04:09.162Z,97776.91
2022-09-01T20:06:42.099Z,97773.77
2022-09-01T20:09:19.048Z,97772.27
2022-09-01T20:12:08.270Z,97772.90
2022-09-01T20:14:48.761Z,97775.17
2022-09-01T20:17:40.789Z,97782.09
2022-09-01T20:20:16.410Z,97783.17
2022-09-01T20:22:50.579Z,97780.83
2022-09-01T20:25:21.337Z,97780.34
2022-09-01T20:28:00.991Z,97780.81
2022-09-01T20:30:40.418Z,97780.01
2022-09-01T20:33:34.515Z,97781.91
2022-09-01T20:36:27.776Z,97782.13
2022-09-01T20:39:21.182Z,97779.84
2022-09-01T20:41:55.613Z,97778.14
2022-09-01T20:44:43.090Z,97775.80
2022-09-01T20:47:11.973Z,97775.42
2022-09-01T20:49:38.835Z,97777.25
2022-09-01T20:52:17.897Z,97778.42
2022-09-01T20:55:10.976Z,97776.88
2022-09-01T20:57:47.704Z,97778.04
2022-09-01T21:00:25.388Z,97777.00
2022-09-01T21:03:36.204Z,97778.90
2022-09-01T21:06:22.221Z,97776.05
2022-09-01T21:09:01.481Z,97780.38
2022-09-01T21:11:40.714Z,97782.95
2022-09-01T21:14:16.941Z,97783.52
2022-09-01T21:17:12.883Z,97784.88
2022-09-01T21:19:45.642Z,97782.79
2022-09-01T21:22:17.488Z,97779.48
2022-09-01T21:24:48.000Z,97778.63
2022-09-01T21:27:22.766Z,97782.42
2022-09-01T21:29:55.572Z,97783.73
2022-09-01T21:32:23.113Z,97787.20
2022-09-01T21:34:49.980Z,97788.52
2022-09-01T21:37:17.763Z,97792.94
2022-09-01T21:39:44.727Z,97790.55
2022-09-01T21:42:12.978Z,97792.95
2022-09-01T21:44:40.590Z,97790.16
2022-09-01T21:47:07.773Z,97790.00
2022-09-01T21:49:34.410Z,97784.77
2022-09-01T21:52:01.576Z,97785.14
2022-09-01T21:54:28.199Z,97786.31
2022-09-01T21:56:55.184Z,97786.40
2022-09-01T21:59:22.685Z,97787.71
2022-09-01T22:01:49.579Z,97781.98
2022-09-01T22:04:17.827Z,97779.67
2022-09-01T22:06:46.412Z,97785.46
2022-09-01T22:09:21.286Z,97782.36
2022-09-01T22:11:50.386Z,97784.04
2022-09-01T22:14:18.561Z,97784.59
2022-09-01T22:16:45.480Z,97782.67
2022-09-01T22:19:12.234Z,97783.09
2022-09-01T22:21:40.933Z,97780.36
2022-09-01T22:24:08.641Z,97776.52
2022-09-01T22:26:35.298Z,97778.55
2022-09-01T22:29:05.238Z,97774.31
2022-09-01T22:31:35.296Z,97768.23
2022-09-01T22:34:01.934Z,97769.27
2022-09-01T22:36:42.183Z,97768.66
2022-09-01T22:39:09.939Z,97771.32
2022-09-01T22:41:38.730Z,97772.39
2022-09-01T22:44:06.529Z,97773.43
2022-09-01T22:46:35.151Z,97780.80
2022-09-01T22:49:03.487Z,97778.08
2022-09-01T22:51:31.413Z,97774.96
2022-09-01T22:53:58.200Z,97770.59
2022-09-01T22:56:28.359Z,97769.13
2022-09-01T22:58:57.471Z,97772.12
2022-09-01T23:01:29.578Z,97776.77
2022-09-01T23:04:01.187Z,97778.10
2022-09-01T23:06:30.115Z,97777.48
2022-09-01T23:09:00.024Z,97779.28
2022-09-01T23:11:27.624Z,97779.92
2022-09-01T23:13:54.741Z,97776.70
2022-09-01T23:16:22.787Z,97777.18
2022-09-01T23:18:50.727Z,97769.23
2022-09-01T23:21:20.606Z,97769.16
2022-09-01T23:23:47.652Z,97773.97
2022-09-01T23:26:15.377Z,97777.40
2022-09-01T23:28:44.338Z,97774.64
2022-09-01T23:31:15.964Z,97774.81
2022-09-01T23:33:43.138Z,97770.92
2022-09-01T23:36:12.109Z,97766.42
2022-09-01T23:38:39.861Z,97769.55
2022-09-01T23:41:10.700Z,97767.33
2022-09-01T23:43:37.573Z,97765.34
2022-09-01T23:46:05.630Z,97766.90
2022-09-01T23:48:33.023Z,97766.09
2022-09-01T23:51:07.982Z,97764.64
2022-09-01T23:53:36.505Z,97766.80
2022-09-01T23:56:09.384Z,97768.53
2022-09-01T23:58:35.890Z,97765.08
